Terminal Aerodrome Forecast
Issued by NWS Shreveport, LA

Home | Current Version | Previous Version | Text Only | Print | Product List | Glossary On
Versions: 1 2 3 4 5 6 7 8 9 10 11 12 13 14 15 16 17
199
FTUS44 KSHV 232002 AAA
TAFTYR
TAF AMD
KTYR 232002Z 2320/2418 19010KT P6SM SCT045
     FM240100 17007KT P6SM SKC
     FM241000 19005KT P6SM BKN010
     FM241200 19005KT P6SM OVC007
     FM241500 20009KT P6SM BKN015=

USA.gov is the U.S. government's official web portal to all federal, state and local government web resources and services.